createdAt,value
2019-02-15T00:01:37.533Z,95999.84
2019-02-15T00:04:06.660Z,96008.58
2019-02-15T00:06:35.427Z,96000.82
2019-02-15T00:09:05.875Z,96013.75
2019-02-15T00:11:34.767Z,96007.78
2019-02-15T00:14:03.647Z,96004.34
2019-02-15T00:16:33.165Z,96010.46
2019-02-15T00:19:07.347Z,96013.73
2019-02-15T00:21:42.834Z,96003.70
2019-02-15T00:24:11.791Z,96004.52
2019-02-15T00:26:41.434Z,96002.38
2019-02-15T00:29:10.711Z,95997.91
2019-02-15T00:31:39.831Z,96001.31
2019-02-15T00:34:09.212Z,95997.92
2019-02-15T00:36:38.324Z,96002.11
2019-02-15T00:39:07.883Z,96002.13
2019-02-15T00:41:37.643Z,95998.58
2019-02-15T00:44:07.238Z,95994.48
2019-02-15T00:46:43.696Z,95992.67
2019-02-15T00:49:18.376Z,95994.67
2019-02-15T00:51:52.428Z,95994.22
2019-02-15T00:54:32.693Z,95985.64
2019-02-15T00:57:06.704Z,95983.84
2019-02-15T01:00:41.640Z,95994.08
2019-02-15T01:03:31.523Z,95998.31
2019-02-15T01:06:08.555Z,95991.41
2019-02-15T01:08:59.527Z,95986.89
2019-02-15T01:11:32.302Z,95983.36
2019-02-15T01:14:01.168Z,95985.64
2019-02-15T01:16:30.584Z,95987.72
2019-02-15T01:18:59.583Z,95991.13
2019-02-15T01:21:28.588Z,95989.98
2019-02-15T01:23:57.475Z,95985.02
2019-02-15T01:26:35.651Z,95997.78
2019-02-15T01:29:12.020Z,96001.14
2019-02-15T01:31:47.281Z,95992.73
2019-02-15T01:34:24.336Z,95995.95
2019-02-15T01:37:01.360Z,95998.56
2019-02-15T01:39:51.300Z,95990.02
2019-02-15T01:44:28.174Z,95993.88
2019-02-15T01:47:04.042Z,95999.36
2019-02-15T01:49:33.777Z,96004.70
2019-02-15T01:52:02.947Z,95999.54
2019-02-15T01:54:32.003Z,95994.33
2019-02-15T01:57:01.594Z,96000.48
2019-02-15T01:59:31.334Z,95995.97
2019-02-15T02:02:00.421Z,95991.77
2019-02-15T02:04:29.539Z,95992.67
2019-02-15T02:06:58.411Z,95986.13
2019-02-15T02:09:27.377Z,95988.23
2019-02-15T02:11:56.614Z,95991.45
2019-02-15T02:14:25.692Z,95987.25
2019-02-15T02:16:55.062Z,95989.82
2019-02-15T02:19:24.189Z,95986.95
2019-02-15T02:21:53.183Z,95977.94
2019-02-15T02:24:22.157Z,95976.34
2019-02-15T02:26:52.404Z,95981.97
2019-02-15T02:29:21.481Z,95979.52
2019-02-15T02:31:50.291Z,95981.48
2019-02-15T02:34:20.048Z,95983.55
2019-02-15T02:36:51.984Z,95979.22
2019-02-15T02:39:20.878Z,95972.94
2019-02-15T02:41:50.392Z,95968.90
2019-02-15T02:44:20.378Z,95968.38
2019-02-15T02:46:49.361Z,95977.21
2019-02-15T02:49:19.723Z,95967.88
2019-02-15T02:51:49.176Z,95971.39
2019-02-15T02:54:18.189Z,95970.73
2019-02-15T02:56:48.171Z,95967.81
2019-02-15T02:59:17.884Z,95974.44
2019-02-15T03:01:46.923Z,95977.47
2019-02-15T03:04:15.831Z,95974.70
2019-02-15T03:06:45.182Z,95981.27
2019-02-15T03:09:14.631Z,95976.45
2019-02-15T03:11:43.525Z,95972.84
2019-02-15T03:14:12.399Z,95974.34
2019-02-15T03:16:41.976Z,95972.41
2019-02-15T03:19:10.831Z,95973.69
2019-02-15T03:21:40.273Z,95976.75
2019-02-15T03:24:09.701Z,95976.89
2019-02-15T03:26:39.190Z,95974.34
2019-02-15T03:29:07.967Z,95980.12
2019-02-15T03:31:36.890Z,95980.77
2019-02-15T03:34:05.930Z,95982.89
2019-02-15T03:36:40.016Z,95983.18
2019-02-15T03:39:16.143Z,95981.88
2019-02-15T03:41:45.204Z,95981.71
2019-02-15T03:44:21.653Z,95983.75
2019-02-15T03:46:43.145Z,95983.92
2019-02-15T03:49:12.646Z,95991.68
2019-02-15T03:51:41.620Z,95985.88
2019-02-15T03:54:10.571Z,95987.82
2019-02-15T03:56:39.546Z,95988.50
2019-02-15T03:59:08.666Z,95987.52
2019-02-15T04:01:37.866Z,95995.56
2019-02-15T04:04:06.699Z,95985.10
2019-02-15T04:06:36.199Z,95983.34
2019-02-15T04:09:05.865Z,95986.51
2019-02-15T04:11:34.707Z,95986.20
2019-02-15T04:14:04.012Z,95982.36
2019-02-15T04:16:33.632Z,95983.77
2019-02-15T04:19:02.707Z,95993.30
2019-02-15T04:21:32.296Z,96002.05
2019-02-15T04:24:02.197Z,96000.13
2019-02-15T04:26:30.995Z,96003.64
2019-02-15T04:29:00.015Z,96005.58
2019-02-15T04:31:28.845Z,96007.02
2019-02-15T04:33:57.692Z,96016.20
2019-02-15T04:36:26.496Z,96015.90
2019-02-15T04:38:55.987Z,95992.45
2019-02-15T04:41:24.971Z,96020.78
2019-02-15T04:43:54.636Z,96019.48
2019-02-15T04:46:23.686Z,96027.20
2019-02-15T04:48:52.490Z,96030.26
2019-02-15T04:51:21.981Z,96037.52
2019-02-15T04:53:51.394Z,96040.05
2019-02-15T04:56:20.481Z,96036.65
2019-02-15T04:58:49.474Z,96036.18
2019-02-15T05:01:18.509Z,96033.83
2019-02-15T05:03:47.592Z,96044.09
2019-02-15T05:06:16.446Z,96041.39
2019-02-15T05:08:45.470Z,96049.83
2019-02-15T05:11:14.993Z,96057.55
2019-02-15T05:13:43.989Z,96062.67
2019-02-15T05:16:12.952Z,96062.02
2019-02-15T05:18:42.441Z,96066.53
2019-02-15T05:21:12.857Z,96070.06
2019-02-15T05:23:41.636Z,96069.11
2019-02-15T05:26:10.827Z,96072.94
2019-02-15T05:28:39.902Z,96072.16
2019-02-15T05:31:09.579Z,96072.10
2019-02-15T05:33:38.456Z,96085.19
2019-02-15T05:36:08.140Z,96098.25
2019-02-15T05:38:38.054Z,96099.37
2019-02-15T05:41:06.869Z,96099.37
2019-02-15T05:43:35.955Z,96103.75
2019-02-15T05:46:05.992Z,96104.58
2019-02-15T05:48:34.976Z,96101.96
2019-02-15T05:51:05.167Z,96100.66
2019-02-15T05:53:34.225Z,96108.75
2019-02-15T05:56:03.674Z,96110.67
2019-02-15T05:58:32.723Z,96124.70
2019-02-15T06:01:02.394Z,96120.36
2019-02-15T06:03:31.814Z,96132.95
2019-02-15T06:06:00.780Z,96141.02
2019-02-15T06:08:31.329Z,96143.27
2019-02-15T06:11:06.459Z,96146.17
2019-02-15T06:13:28.083Z,96143.59
2019-02-15T06:15:57.395Z,96146.17
2019-02-15T06:18:26.519Z,96134.58
2019-02-15T06:20:55.629Z,96136.52
2019-02-15T06:23:24.596Z,96135.53
2019-02-15T06:25:53.606Z,96137.29
2019-02-15T06:28:22.682Z,96135.02
2019-02-15T06:30:51.637Z,96143.87
2019-02-15T06:33:20.658Z,96147.13
2019-02-15T06:35:49.944Z,96153.72
2019-02-15T06:38:18.970Z,96153.72
2019-02-15T06:40:48.586Z,96157.06
2019-02-15T06:43:18.574Z,96166.14
2019-02-15T06:45:47.604Z,96163.56
2019-02-15T06:48:16.612Z,96171.61
2019-02-15T06:50:45.655Z,96172.08
2019-02-15T06:53:14.762Z,96173.20
2019-02-15T06:55:43.791Z,96175.30
2019-02-15T06:58:13.929Z,96170.14
2019-02-15T07:00:47.105Z,96171.56
2019-02-15T07:03:23.716Z,96171.09
2019-02-15T07:05:52.656Z,96178.97
2019-02-15T07:08:22.435Z,96179.47
2019-02-15T07:10:51.588Z,96184.42
2019-02-15T07:13:21.288Z,96177.78
2019-02-15T07:15:50.268Z,96186.70
2019-02-15T07:18:19.088Z,96183.48
2019-02-15T07:20:49.749Z,96187.34
2019-02-15T07:23:18.853Z,96189.58
2019-02-15T07:25:47.864Z,96189.27
2019-02-15T07:28:16.861Z,96189.23
2019-02-15T07:30:46.176Z,96189.76
2019-02-15T07:33:15.189Z,96173.44
2019-02-15T07:35:44.848Z,96169.73
2019-02-15T07:38:14.370Z,96185.11
2019-02-15T07:40:43.343Z,96179.59
2019-02-15T07:43:12.992Z,96183.77
2019-02-15T07:45:43.053Z,96182.17
2019-02-15T07:48:11.267Z,96153.49
2019-02-15T07:50:40.278Z,96145.39
2019-02-15T07:53:09.520Z,96162.75
2019-02-15T07:55:38.532Z,96155.12
2019-02-15T07:58:07.549Z,96152.33
2019-02-15T08:00:37.190Z,96164.59
2019-02-15T08:03:06.263Z,96172.02
2019-02-15T08:05:35.877Z,96169.41
2019-02-15T08:08:05.258Z,96158.73
2019-02-15T08:10:34.266Z,96163.59
2019-02-15T08:13:03.253Z,96166.81
2019-02-15T08:15:36.235Z,96165.45
2019-02-15T08:18:02.357Z,96177.02
2019-02-15T08:20:32.132Z,96178.45
2019-02-15T08:23:00.990Z,96182.87
2019-02-15T08:25:30.283Z,96183.22
2019-02-15T08:28:00.258Z,96186.29
2019-02-15T08:30:30.375Z,96182.86
2019-02-15T08:32:59.443Z,96193.05
2019-02-15T08:35:28.511Z,96195.78
2019-02-15T08:37:58.916Z,96195.69
2019-02-15T08:40:27.593Z,96196.36
2019-02-15T08:42:58.272Z,96194.41
2019-02-15T08:45:27.415Z,96201.98
2019-02-15T08:47:56.954Z,96189.94
2019-02-15T08:50:26.137Z,96184.56
2019-02-15T08:52:56.169Z,96197.47
2019-02-15T08:55:25.461Z,96202.01
2019-02-15T08:57:55.199Z,96202.36
2019-02-15T09:00:24.348Z,96213.03
2019-02-15T09:02:53.391Z,96212.03
2019-02-15T09:05:22.587Z,96209.14
2019-02-15T09:07:52.312Z,96216.83
2019-02-15T09:10:21.384Z,96205.18
2019-02-15T09:12:52.321Z,96204.75
2019-02-15T09:15:21.967Z,96220.41
2019-02-15T09:17:50.938Z,96219.02
2019-02-15T09:20:20.265Z,96215.79
2019-02-15T09:22:49.435Z,96220.42
2019-02-15T09:25:18.529Z,96214.25
2019-02-15T09:27:54.515Z,96226.77
2019-02-15T09:30:23.599Z,96228.45
2019-02-15T09:32:53.024Z,96224.50
2019-02-15T09:35:22.016Z,96220.88
2019-02-15T09:37:50.852Z,96226.33
2019-02-15T09:40:20.246Z,96226.02
2019-02-15T09:42:49.792Z,96224.02
2019-02-15T09:45:18.652Z,96224.34
2019-02-15T09:47:48.103Z,96230.27
2019-02-15T09:50:17.896Z,96228.48
2019-02-15T09:52:48.291Z,96236.94
2019-02-15T09:55:17.079Z,96235.47
2019-02-15T09:57:45.735Z,96230.55
2019-02-15T10:00:15.730Z,96229.27
2019-02-15T10:02:45.044Z,96227.97
2019-02-15T10:05:13.951Z,96229.39
2019-02-15T10:07:43.590Z,96221.80
2019-02-15T10:10:12.583Z,96220.09
2019-02-15T10:12:42.524Z,96218.14
2019-02-15T10:15:11.643Z,96221.50
2019-02-15T10:17:40.600Z,96221.22
2019-02-15T10:20:10.272Z,96230.09
2019-02-15T10:22:39.291Z,96226.81
2019-02-15T10:25:09.156Z,96222.80
2019-02-15T10:27:38.428Z,96221.34
2019-02-15T10:30:08.185Z,96225.98
2019-02-15T10:32:37.736Z,96224.48
2019-02-15T10:35:07.658Z,96228.64
2019-02-15T10:37:36.757Z,96233.58
2019-02-15T10:40:06.453Z,96241.93
2019-02-15T10:42:35.868Z,96251.52
2019-02-15T10:45:05.227Z,96252.54
2019-02-15T10:47:34.277Z,96255.98
2019-02-15T10:50:05.097Z,96252.70
2019-02-15T10:52:32.801Z,96253.70
2019-02-15T10:55:02.245Z,96250.14
2019-02-15T10:57:31.683Z,96241.73
2019-02-15T11:00:00.859Z,96242.25
2019-02-15T11:02:29.917Z,96248.84
2019-02-15T11:04:58.762Z,96252.35
2019-02-15T11:07:27.540Z,96255.93
2019-02-15T11:09:57.104Z,96253.02
2019-02-15T11:12:26.097Z,96259.28
2019-02-15T11:14:55.174Z,96251.63
2019-02-15T11:17:24.195Z,96263.44
2019-02-15T11:19:53.612Z,96260.38
2019-02-15T11:22:23.503Z,96264.48
2019-02-15T11:24:53.579Z,96259.02
2019-02-15T11:27:23.168Z,96261.96
2019-02-15T11:29:51.892Z,96253.93
2019-02-15T11:32:21.479Z,96253.90
2019-02-15T11:34:50.811Z,96247.61
2019-02-15T11:37:19.847Z,96255.69
2019-02-15T11:39:49.110Z,96252.14
2019-02-15T11:42:18.792Z,96258.46
2019-02-15T11:44:47.433Z,96249.78
2019-02-15T11:47:16.216Z,96257.98
2019-02-15T11:49:45.428Z,96261.53
2019-02-15T11:52:15.121Z,96263.53
2019-02-15T11:54:44.849Z,96263.73
2019-02-15T11:57:13.895Z,96265.73
2019-02-15T11:59:43.920Z,96267.33
2019-02-15T12:02:12.969Z,96264.36
2019-02-15T12:04:41.787Z,96264.19
2019-02-15T12:07:11.165Z,96267.58
2019-02-15T12:09:40.284Z,96272.70
2019-02-15T12:12:10.971Z,96273.52
2019-02-15T12:14:38.956Z,96272.20
2019-02-15T12:17:08.149Z,96268.16
2019-02-15T12:19:38.574Z,96268.89
2019-02-15T12:22:08.296Z,96271.30
2019-02-15T12:24:38.422Z,96264.81
2019-02-15T12:27:08.092Z,96266.30
2019-02-15T12:29:37.015Z,96264.03
2019-02-15T12:32:07.017Z,96262.43
2019-02-15T12:34:36.943Z,96259.41
2019-02-15T12:37:06.256Z,96258.56
2019-02-15T12:39:35.788Z,96259.73
2019-02-15T12:42:04.677Z,96254.22
2019-02-15T12:44:33.519Z,96253.69
2019-02-15T12:47:02.470Z,96254.48
2019-02-15T12:49:31.523Z,96250.03
2019-02-15T12:52:00.536Z,96246.44
2019-02-15T12:54:29.757Z,96238.78
2019-02-15T12:56:58.754Z,96243.61
2019-02-15T12:59:27.851Z,96237.57
2019-02-15T13:01:57.275Z,96238.05
2019-02-15T13:04:26.106Z,96241.20
2019-02-15T13:06:55.093Z,96233.19
2019-02-15T13:09:24.346Z,96247.21
2019-02-15T13:11:53.086Z,96245.41
2019-02-15T13:14:21.949Z,96240.16
2019-02-15T13:16:50.892Z,96231.38
2019-02-15T13:19:19.865Z,96239.39
2019-02-15T13:21:48.747Z,96239.09
2019-02-15T13:24:17.687Z,96239.15
2019-02-15T13:26:46.788Z,96236.94
2019-02-15T13:29:16.284Z,96242.74
2019-02-15T13:31:45.371Z,96246.53
2019-02-15T13:34:14.433Z,96241.06
2019-02-15T13:36:43.215Z,96250.48
2019-02-15T13:39:12.580Z,96247.89
2019-02-15T13:41:41.632Z,96253.70
2019-02-15T13:44:11.174Z,96252.15
2019-02-15T13:46:40.451Z,96257.53
2019-02-15T13:49:09.418Z,96253.56
2019-02-15T13:51:38.576Z,96268.97
2019-02-15T13:54:07.932Z,96262.48
2019-02-15T13:56:36.818Z,96266.47
2019-02-15T13:59:05.814Z,96266.84
2019-02-15T14:01:34.833Z,96270.45
2019-02-15T14:04:04.308Z,96269.50
2019-02-15T14:06:33.132Z,96268.50
2019-02-15T14:09:02.239Z,96272.39
2019-02-15T14:11:31.913Z,96268.52
2019-02-15T14:14:01.817Z,96268.69
2019-02-15T14:16:31.018Z,96267.27
2019-02-15T14:18:59.915Z,96263.88
2019-02-15T14:21:28.812Z,96240.82
2019-02-15T14:23:58.009Z,96263.98
2019-02-15T14:26:27.104Z,96261.69
2019-02-15T14:28:56.251Z,96257.27
2019-02-15T14:31:26.082Z,96249.69
2019-02-15T14:33:55.108Z,96245.74
2019-02-15T14:36:24.112Z,96244.70
2019-02-15T14:38:53.253Z,96240.83
2019-02-15T14:41:22.286Z,96245.09
2019-02-15T14:43:51.084Z,96247.58
2019-02-15T14:46:21.007Z,96247.47
2019-02-15T14:48:50.097Z,96242.94
2019-02-15T14:51:20.897Z,96247.77
2019-02-15T14:53:50.174Z,96257.16
2019-02-15T14:56:19.331Z,96262.64
2019-02-15T14:58:48.437Z,96254.92
2019-02-15T15:01:17.302Z,96257.82
2019-02-15T15:03:46.663Z,96261.05
2019-02-15T15:06:15.929Z,96264.91
2019-02-15T15:08:44.936Z,96262.91
2019-02-15T15:11:14.572Z,96254.58
2019-02-15T15:13:43.415Z,96250.08
2019-02-15T15:16:13.025Z,96247.75
2019-02-15T15:18:42.862Z,96247.22
2019-02-15T15:21:12.637Z,96239.99
2019-02-15T15:23:41.787Z,96246.80
2019-02-15T15:26:12.262Z,96246.20
2019-02-15T15:28:40.482Z,96249.11
2019-02-15T15:31:11.343Z,96252.82
2019-02-15T15:33:38.851Z,96245.00
2019-02-15T15:36:09.193Z,96241.59
2019-02-15T15:38:38.425Z,96236.00
2019-02-15T15:41:07.587Z,96232.97
2019-02-15T15:43:36.462Z,96237.34
2019-02-15T15:46:05.664Z,96240.65
2019-02-15T15:48:34.661Z,96228.28
2019-02-15T15:51:03.779Z,96243.20
2019-02-15T15:53:32.752Z,96253.02
2019-02-15T15:56:01.933Z,96258.05
2019-02-15T15:58:30.994Z,96259.20
2019-02-15T16:01:00.628Z,96262.31
2019-02-15T16:03:29.738Z,96260.37
2019-02-15T16:06:00.321Z,96265.50
2019-02-15T16:08:28.436Z,96260.80
2019-02-15T16:10:57.615Z,96270.55
2019-02-15T16:13:27.496Z,96271.22
2019-02-15T16:15:56.970Z,96276.56
2019-02-15T16:18:32.246Z,96287.64
2019-02-15T16:20:55.133Z,96276.63
2019-02-15T16:23:24.564Z,96278.62
2019-02-15T16:25:53.835Z,96279.70
2019-02-15T16:28:22.920Z,96288.70
2019-02-15T16:30:51.855Z,96292.02
2019-02-15T16:33:21.941Z,96293.70
2019-02-15T16:35:51.032Z,96304.08
2019-02-15T16:38:19.977Z,96303.94
2019-02-15T16:40:49.047Z,96303.13
2019-02-15T16:43:18.181Z,96311.37
2019-02-15T16:45:48.574Z,96314.89
2019-02-15T16:48:17.749Z,96318.27
2019-02-15T16:50:46.767Z,96318.55
2019-02-15T16:53:15.809Z,96322.66
2019-02-15T16:55:44.911Z,96318.97
2019-02-15T16:58:13.981Z,96322.81
2019-02-15T17:00:42.816Z,96323.12
2019-02-15T17:03:11.940Z,96335.53
2019-02-15T17:05:40.708Z,96346.91
2019-02-15T17:08:09.757Z,96358.64
2019-02-15T17:10:38.855Z,96356.08
2019-02-15T17:13:07.545Z,96363.28
2019-02-15T17:15:37.246Z,96371.33
2019-02-15T17:18:06.763Z,96379.23
2019-02-15T17:20:35.838Z,96380.63
2019-02-15T17:23:04.805Z,96387.50
2019-02-15T17:25:34.106Z,96390.08
2019-02-15T17:28:03.489Z,96389.39
2019-02-15T17:30:34.203Z,96393.61
2019-02-15T17:33:03.803Z,96390.48
2019-02-15T17:35:32.802Z,96393.89
2019-02-15T17:38:02.115Z,96400.17
2019-02-15T17:40:31.268Z,96402.44
2019-02-15T17:43:01.774Z,96404.16
2019-02-15T17:45:31.007Z,96407.42
2019-02-15T17:47:59.983Z,96404.39
2019-02-15T17:50:29.343Z,96393.28
2019-02-15T17:52:58.261Z,96395.87
2019-02-15T17:55:27.377Z,96388.66
2019-02-15T17:57:56.469Z,96393.70
2019-02-15T18:00:26.306Z,96395.14
2019-02-15T18:02:55.483Z,96397.95
2019-02-15T18:05:24.688Z,96398.55
2019-02-15T18:07:54.119Z,96401.83
2019-02-15T18:10:23.286Z,96400.18
2019-02-15T18:12:52.483Z,96407.17
2019-02-15T18:15:21.781Z,96408.42
2019-02-15T18:17:51.039Z,96398.08
2019-02-15T18:20:21.443Z,96405.95
2019-02-15T18:22:50.317Z,96401.76
2019-02-15T18:25:19.699Z,96410.19
2019-02-15T18:27:48.560Z,96414.88
2019-02-15T18:30:18.164Z,96413.59
2019-02-15T18:32:47.731Z,96411.83
2019-02-15T18:35:16.811Z,96412.66
2019-02-15T18:37:46.328Z,96412.17
2019-02-15T18:40:15.169Z,96409.28
2019-02-15T18:42:44.497Z,96411.70
2019-02-15T18:45:13.728Z,96416.05
2019-02-15T18:47:42.699Z,96417.34
2019-02-15T18:50:12.421Z,96420.91
2019-02-15T18:52:41.507Z,96426.09
2019-02-15T18:55:11.222Z,96419.75
2019-02-15T18:57:40.717Z,96425.10
2019-02-15T19:00:11.332Z,96417.05
2019-02-15T19:02:41.029Z,96419.32
2019-02-15T19:05:11.369Z,96416.39
2019-02-15T19:07:40.566Z,96419.63
2019-02-15T19:10:11.558Z,96421.56
2019-02-15T19:12:40.569Z,96423.53
2019-02-15T19:15:10.531Z,96421.26
2019-02-15T19:17:39.576Z,96414.77
2019-02-15T19:20:09.768Z,96421.87
2019-02-15T19:22:39.079Z,96424.80
2019-02-15T19:25:09.687Z,96419.48
2019-02-15T19:27:39.732Z,96420.27
2019-02-15T19:30:11.088Z,96416.26
2019-02-15T19:32:40.134Z,96420.27
2019-02-15T19:35:09.314Z,96418.02
2019-02-15T19:37:39.458Z,96420.30
2019-02-15T19:40:10.477Z,96426.42
2019-02-15T19:42:40.575Z,96411.56
2019-02-15T19:45:10.486Z,96422.24
2019-02-15T19:47:39.524Z,96419.15
2019-02-15T19:50:10.748Z,96417.08
2019-02-15T19:52:40.406Z,96419.83
2019-02-15T19:55:09.944Z,96421.44
2019-02-15T19:57:39.813Z,96419.34
2019-02-15T20:00:12.853Z,96416.25
2019-02-15T20:02:42.847Z,96409.97
2019-02-15T20:05:11.928Z,96411.73
2019-02-15T20:07:40.994Z,96413.81
2019-02-15T20:10:12.429Z,96411.27
2019-02-15T20:12:41.826Z,96410.61
2019-02-15T20:15:12.062Z,96410.11
2019-02-15T20:17:41.075Z,96408.84
2019-02-15T20:20:11.660Z,96404.83
2019-02-15T20:22:40.731Z,96404.18
2019-02-15T20:25:10.558Z,96404.16
2019-02-15T20:27:39.583Z,96405.92
2019-02-15T20:30:11.131Z,96406.42
2019-02-15T20:32:40.065Z,96408.70
2019-02-15T20:35:10.410Z,96406.42
2019-02-15T20:37:39.380Z,96407.06
2019-02-15T20:40:09.811Z,96414.50
2019-02-15T20:42:39.007Z,96412.56
2019-02-15T20:45:11.671Z,96407.38
2019-02-15T20:47:40.567Z,96408.51
2019-02-15T20:50:10.122Z,96408.37
2019-02-15T20:52:39.200Z,96417.23
2019-02-15T20:55:09.684Z,96414.18
2019-02-15T20:57:38.965Z,96406.42
2019-02-15T21:00:10.142Z,96408.37
2019-02-15T21:02:39.019Z,96407.58
2019-02-15T21:05:09.010Z,96412.56
2019-02-15T21:07:37.999Z,96417.73
2019-02-15T21:10:08.263Z,96420.66
2019-02-15T21:12:39.551Z,96422.90
2019-02-15T21:15:07.035Z,96417.42
2019-02-15T21:17:36.015Z,96419.66
2019-02-15T21:20:07.981Z,96422.58
2019-02-15T21:22:34.669Z,96429.67
2019-02-15T21:25:04.363Z,96396.76
2019-02-15T21:27:33.783Z,96431.45
2019-02-15T21:30:02.743Z,96430.49
2019-02-15T21:32:32.490Z,96432.73
2019-02-15T21:35:01.380Z,96426.14
2019-02-15T21:37:30.508Z,96434.83
2019-02-15T21:39:59.983Z,96436.45
2019-02-15T21:42:29.091Z,96435.16
2019-02-15T21:44:58.701Z,96426.42
2019-02-15T21:47:27.822Z,96435.17
2019-02-15T21:49:56.982Z,96431.09
2019-02-15T21:52:26.403Z,96430.78
2019-02-15T21:54:55.439Z,96426.41
2019-02-15T21:57:24.507Z,96427.19
2019-02-15T21:59:53.467Z,96425.70
2019-02-15T22:02:23.188Z,96436.06
2019-02-15T22:04:52.043Z,96433.09
2019-02-15T22:07:21.556Z,96431.53
2019-02-15T22:09:50.612Z,96429.59
2019-02-15T22:12:19.669Z,96427.19
2019-02-15T22:14:48.984Z,96431.83
2019-02-15T22:17:18.369Z,96432.52
2019-02-15T22:19:47.284Z,96418.98
2019-02-15T22:22:16.579Z,96421.24
2019-02-15T22:24:45.700Z,96428.84
2019-02-15T22:27:15.150Z,96430.27
2019-02-15T22:29:44.191Z,96424.31
2019-02-15T22:32:13.220Z,96432.24
2019-02-15T22:34:42.164Z,96434.82
2019-02-15T22:37:11.256Z,96432.91
2019-02-15T22:39:40.394Z,96436.44
2019-02-15T22:42:09.947Z,96434.19
2019-02-15T22:44:39.144Z,96439.03
2019-02-15T22:47:08.396Z,96429.81
2019-02-15T22:49:43.305Z,96423.85
2019-02-15T22:52:07.382Z,96427.56
2019-02-15T22:54:36.515Z,96425.29
2019-02-15T22:57:05.343Z,96423.05
2019-02-15T22:59:35.489Z,96425.47
2019-02-15T23:02:04.522Z,96422.52
2019-02-15T23:04:33.138Z,96421.91
2019-02-15T23:07:02.289Z,96424.33
2019-02-15T23:09:31.276Z,96425.75
2019-02-15T23:12:00.503Z,96424.92
2019-02-15T23:14:29.291Z,96423.01
2019-02-15T23:16:58.112Z,96418.31
2019-02-15T23:19:27.107Z,96423.01
2019-02-15T23:21:55.858Z,96425.09
2019-02-15T23:24:25.281Z,96415.10
2019-02-15T23:26:54.292Z,96421.23
2019-02-15T23:29:23.456Z,96424.80
2019-02-15T23:31:52.385Z,96426.09
2019-02-15T23:34:21.179Z,96417.08
2019-02-15T23:36:50.275Z,96421.26
2019-02-15T23:39:19.858Z,96417.41
2019-02-15T23:41:48.748Z,96414.17
2019-02-15T23:44:17.654Z,96419.16
2019-02-15T23:46:47.504Z,96420.59
2019-02-15T23:49:17.387Z,96420.95
2019-02-15T23:51:46.295Z,96417.08
2019-02-15T23:54:15.305Z,96419.66
2019-02-15T23:56:44.483Z,96420.29
2019-02-15T23:59:14.305Z,96419.28
